createdAt,value
2023-03-22T00:02:09.021Z,9.15
2023-03-22T00:05:13.620Z,9.56
2023-03-22T00:08:17.510Z,9.18
2023-03-22T00:11:24.302Z,9.22
2023-03-22T00:14:29.770Z,9.24
2023-03-22T00:17:33.860Z,9.07
2023-03-22T00:20:42.009Z,9.31
2023-03-22T00:23:47.676Z,9.03
2023-03-22T00:26:52.386Z,9.04
2023-03-22T00:29:59.328Z,8.78
2023-03-22T00:33:03.046Z,8.90
2023-03-22T00:36:09.386Z,8.88
2023-03-22T00:39:12.988Z,8.68
2023-03-22T00:42:17.071Z,8.60
2023-03-22T00:45:22.442Z,8.55
2023-03-22T00:48:26.663Z,8.56
2023-03-22T00:51:31.728Z,8.22
2023-03-22T00:54:36.044Z,8.46
2023-03-22T00:57:40.435Z,8.48
2023-03-22T01:00:46.828Z,7.84
2023-03-22T01:03:51.524Z,8.22
2023-03-22T01:07:01.453Z,7.90
2023-03-22T01:10:07.387Z,8.02
2023-03-22T01:13:30.670Z,7.53
2023-03-22T01:16:35.943Z,7.74
2023-03-22T01:19:40.082Z,7.81
2023-03-22T01:22:45.009Z,7.76
2023-03-22T01:25:49.343Z,7.57
2023-03-22T01:28:52.964Z,7.72
2023-03-22T01:31:58.797Z,7.61
2023-03-22T01:35:02.450Z,7.33
2023-03-22T01:38:07.869Z,7.34
2023-03-22T01:41:18.093Z,7.48
2023-03-22T01:44:25.682Z,7.54
2023-03-22T01:47:36.478Z,7.37
2023-03-22T01:50:46.491Z,7.60
2023-03-22T01:53:52.934Z,7.61
2023-03-22T01:56:57.962Z,7.45
2023-03-22T02:00:15.566Z,7.29
2023-03-22T02:03:48.324Z,7.08
2023-03-22T02:06:55.864Z,7.35
2023-03-22T02:10:03.681Z,7.33
2023-03-22T02:13:49.121Z,7.04
2023-03-22T02:17:33.695Z,7.35
2023-03-22T02:21:21.354Z,6.91
2023-03-22T02:24:55.671Z,6.63
2023-03-22T02:28:24.072Z,6.82
2023-03-22T02:31:50.310Z,6.73
2023-03-22T02:35:26.780Z,7.02
2023-03-22T02:39:04.532Z,7.11
2023-03-22T02:42:33.540Z,6.94
2023-03-22T02:45:47.858Z,6.68
2023-03-22T02:49:00.375Z,6.89
2023-03-22T02:52:17.583Z,6.94
2023-03-22T02:55:27.670Z,7.13
2023-03-22T02:58:38.290Z,7.09
2023-03-22T03:01:46.240Z,7.05
2023-03-22T03:04:53.289Z,6.78
2023-03-22T03:08:04.172Z,6.75
2023-03-22T03:11:11.808Z,6.68
2023-03-22T03:14:23.433Z,6.86
2023-03-22T03:17:52.253Z,6.78
2023-03-22T03:21:04.744Z,6.59
2023-03-22T03:24:22.753Z,6.59
2023-03-22T03:27:36.613Z,6.76
2023-03-22T03:30:49.656Z,6.88
2023-03-22T03:34:01.540Z,6.40
2023-03-22T03:37:11.778Z,6.54
2023-03-22T03:40:19.940Z,6.21
2023-03-22T03:43:26.344Z,6.36
2023-03-22T03:46:31.482Z,6.28
2023-03-22T03:49:38.513Z,5.98
2023-03-22T03:52:42.913Z,6.21
2023-03-22T03:55:47.230Z,6.09
2023-03-22T03:58:53.446Z,6.09
2023-03-22T04:01:57.787Z,5.78
2023-03-22T04:05:07.617Z,5.89
2023-03-22T04:08:13.406Z,6.13
2023-03-22T04:11:36.199Z,6.18
2023-03-22T04:14:43.506Z,6.24
2023-03-22T04:17:55.962Z,6.09
2023-03-22T04:21:03.607Z,6.15
2023-03-22T04:24:15.169Z,5.96
2023-03-22T04:27:22.874Z,6.04
2023-03-22T04:30:36.996Z,6.10
2023-03-22T04:33:56.629Z,6.09
2023-03-22T04:37:27.179Z,5.77
2023-03-22T04:40:52.648Z,5.61
2023-03-22T04:44:05.810Z,5.91
2023-03-22T04:47:14.890Z,5.77
2023-03-22T04:50:19.406Z,5.87
2023-03-22T04:53:28.411Z,5.66
2023-03-22T04:56:37.373Z,5.99
2023-03-22T04:59:42.146Z,5.88
2023-03-22T05:02:49.972Z,5.93
2023-03-22T05:06:15.477Z,6.05
2023-03-22T05:09:45.804Z,6.03
2023-03-22T05:12:51.283Z,6.18
2023-03-22T05:16:00.364Z,5.90
2023-03-22T05:19:16.706Z,6.25
2023-03-22T05:22:24.559Z,6.32
2023-03-22T05:25:34.423Z,6.54
2023-03-22T05:29:11.082Z,6.73
2023-03-22T05:32:33.378Z,6.63
2023-03-22T05:35:40.561Z,6.46
2023-03-22T05:38:46.633Z,6.73
2023-03-22T05:41:50.839Z,6.54
2023-03-22T05:44:56.594Z,6.40
2023-03-22T05:48:00.653Z,6.82
2023-03-22T05:51:09.439Z,6.94
2023-03-22T05:54:13.788Z,7.10
2023-03-22T05:57:24.845Z,7.02
2023-03-22T06:00:32.992Z,7.19
2023-03-22T06:04:00.574Z,7.43
2023-03-22T06:07:18.433Z,7.36
2023-03-22T06:10:28.885Z,7.31
2023-03-22T06:13:32.549Z,7.40
2023-03-22T06:16:36.675Z,7.72
2023-03-22T06:19:41.379Z,7.97
2023-03-22T06:22:50.537Z,8.13
2023-03-22T06:25:55.069Z,8.13
2023-03-22T06:29:00.369Z,8.27
2023-03-22T06:32:04.930Z,8.30
2023-03-22T06:35:10.140Z,8.36
2023-03-22T06:38:15.893Z,8.28
2023-03-22T06:41:21.213Z,8.33
2023-03-22T06:44:26.713Z,8.65
2023-03-22T06:47:47.887Z,9.30
2023-03-22T06:51:09.999Z,9.43
2023-03-22T06:54:16.888Z,9.61
2023-03-22T06:57:20.616Z,10.21
2023-03-22T07:00:25.089Z,11.00
2023-03-22T07:03:29.107Z,11.46
2023-03-22T07:06:41.895Z,12.32
2023-03-22T07:10:07.905Z,12.66
2023-03-22T07:13:12.161Z,13.32
2023-03-22T07:16:18.104Z,13.82
2023-03-22T07:19:34.546Z,14.46
2023-03-22T07:22:43.394Z,14.62
2023-03-22T07:25:49.543Z,15.39
2023-03-22T07:28:59.548Z,15.09
2023-03-22T07:32:07.665Z,16.12
2023-03-22T07:35:29.275Z,16.34
2023-03-22T07:38:34.247Z,17.04
2023-03-22T07:41:41.062Z,16.97
2023-03-22T07:45:10.199Z,17.56
2023-03-22T07:48:24.767Z,18.10
2023-03-22T07:51:37.844Z,18.79
2023-03-22T07:54:42.488Z,18.73
2023-03-22T07:57:48.383Z,18.44
2023-03-22T08:00:53.175Z,18.83
2023-03-22T08:04:15.923Z,18.23
2023-03-22T08:07:35.414Z,17.91
2023-03-22T08:10:40.488Z,17.57
2023-03-22T08:13:45.669Z,17.15
2023-03-22T08:16:49.923Z,16.68
2023-03-22T08:19:55.998Z,15.89
2023-03-22T08:23:14.925Z,15.93
2023-03-22T08:26:37.667Z,15.89
2023-03-22T08:29:56.539Z,15.76
2023-03-22T08:33:00.135Z,15.53
2023-03-22T08:36:08.944Z,15.48
2023-03-22T08:39:18.877Z,15.20
2023-03-22T08:42:32.162Z,15.17
2023-03-22T08:45:37.707Z,15.25
2023-03-22T08:48:50.882Z,15.19
2023-03-22T08:52:03.710Z,14.97
2023-03-22T08:55:20.127Z,14.99
2023-03-22T08:58:46.519Z,14.94
2023-03-22T09:02:14.632Z,15.09
2023-03-22T09:05:18.914Z,15.06
2023-03-22T09:08:23.278Z,14.97
2023-03-22T09:11:37.322Z,14.86
2023-03-22T09:14:41.724Z,14.84
2023-03-22T09:17:46.855Z,14.75
2023-03-22T09:20:52.746Z,14.78
2023-03-22T09:24:00.959Z,14.81
2023-03-22T09:27:15.203Z,15.01
2023-03-22T09:30:19.466Z,14.87
2023-03-22T09:33:29.387Z,14.94
2023-03-22T09:36:34.419Z,14.78
2023-03-22T09:39:39.167Z,14.81
2023-03-22T09:42:47.536Z,14.84
2023-03-22T09:45:54.057Z,14.83
2023-03-22T09:49:02.207Z,14.88
2023-03-22T09:52:13.499Z,14.93
2023-03-22T09:55:27.769Z,15.09
2023-03-22T09:58:37.657Z,15.24
2023-03-22T10:01:52.991Z,15.29
2023-03-22T10:05:06.517Z,15.32
2023-03-22T10:08:31.550Z,15.19
2023-03-22T10:11:45.964Z,15.22
2023-03-22T10:14:53.114Z,15.37
2023-03-22T10:18:00.380Z,15.13
2023-03-22T10:21:12.383Z,15.23
2023-03-22T10:24:23.954Z,15.31
2023-03-22T10:27:30.095Z,15.21
2023-03-22T10:30:40.156Z,15.27
2023-03-22T10:33:51.315Z,15.19
2023-03-22T10:37:00.419Z,15.32
2023-03-22T10:40:09.453Z,15.35
2023-03-22T10:43:23.977Z,15.29
2023-03-22T10:46:33.038Z,15.34
2023-03-22T10:49:40.992Z,15.36
2023-03-22T10:52:52.663Z,15.41
2023-03-22T10:56:00.446Z,15.18
2023-03-22T10:59:04.205Z,14.99
2023-03-22T11:02:21.753Z,14.69
2023-03-22T11:05:27.826Z,14.86
2023-03-22T11:08:40.744Z,15.00
2023-03-22T11:11:51.175Z,15.32
2023-03-22T11:14:55.585Z,15.42
2023-03-22T11:18:08.886Z,15.41
2023-03-22T11:21:17.546Z,15.48
2023-03-22T11:24:26.771Z,15.74
2023-03-22T11:27:34.728Z,15.78
2023-03-22T11:30:41.238Z,15.58
2023-03-22T11:33:57.705Z,15.67
2023-03-22T11:37:02.492Z,15.77
2023-03-22T11:40:16.314Z,15.72
2023-03-22T11:43:25.438Z,15.73
2023-03-22T11:46:32.609Z,15.84
2023-03-22T11:49:46.301Z,15.94
2023-03-22T11:52:50.624Z,15.91
2023-03-22T11:55:58.977Z,15.93
2023-03-22T11:59:08.783Z,15.93
2023-03-22T12:02:21.665Z,16.00
2023-03-22T12:05:27.664Z,16.16
2023-03-22T12:08:42.820Z,16.09
2023-03-22T12:11:52.620Z,15.99
2023-03-22T12:15:03.140Z,16.02
2023-03-22T12:18:16.117Z,15.99
2023-03-22T12:21:19.961Z,16.16
2023-03-22T12:24:30.936Z,16.23
2023-03-22T12:27:41.022Z,16.08
2023-03-22T12:30:49.236Z,16.16
2023-03-22T12:33:57.291Z,15.99
2023-03-22T12:37:05.333Z,16.12
2023-03-22T12:40:21.119Z,16.09
2023-03-22T12:43:41.243Z,16.14
2023-03-22T12:46:51.835Z,16.19
2023-03-22T12:50:00.630Z,16.31
2023-03-22T12:53:06.764Z,16.20
2023-03-22T12:56:16.714Z,16.27
2023-03-22T13:03:03.968Z,16.32
2023-03-22T13:06:33.780Z,16.35
2023-03-22T13:09:43.594Z,16.39
2023-03-22T13:13:12.236Z,16.42
2023-03-22T13:16:22.980Z,16.54
2023-03-22T13:19:37.768Z,16.41
2023-03-22T13:23:19.626Z,16.56
2023-03-22T13:26:29.316Z,16.77
2023-03-22T13:29:37.634Z,16.83
2023-03-22T13:32:56.190Z,16.76
2023-03-22T13:36:09.471Z,16.62
2023-03-22T13:39:16.407Z,16.51
2023-03-22T13:42:22.827Z,16.72
2023-03-22T13:45:34.814Z,16.69
2023-03-22T13:48:52.372Z,16.81
2023-03-22T13:52:00.166Z,16.78
2023-03-22T13:55:15.507Z,17.00
2023-03-22T13:58:39.594Z,16.93
2023-03-22T14:01:47.832Z,17.11
2023-03-22T14:04:56.210Z,16.83
2023-03-22T14:08:04.481Z,17.11
2023-03-22T14:11:27.285Z,17.01
2023-03-22T14:14:37.118Z,16.80
2023-03-22T14:17:45.963Z,16.82
2023-03-22T14:20:59.496Z,16.51
